createdAt,value
2023-11-18T00:02:44.094Z,101331.66
2023-11-18T00:07:45.997Z,101330.63
2023-11-18T00:12:47.978Z,101324.16
2023-11-18T00:17:49.587Z,101325.38
2023-11-18T00:22:52.538Z,101329.09
2023-11-18T00:27:54.197Z,101328.25
2023-11-18T00:32:55.852Z,101316.69
2023-11-18T00:37:57.566Z,101318.81
2023-11-18T00:42:59.207Z,101309.19
2023-11-18T00:48:00.885Z,101296.66
2023-11-18T00:53:02.617Z,101292.09
2023-11-18T00:58:04.282Z,101290.41
2023-11-18T01:03:06.058Z,101296.69
2023-11-18T01:08:07.762Z,101317.25
2023-11-18T01:13:10.277Z,101323.34
2023-11-18T01:18:11.983Z,101339.66
2023-11-18T01:23:13.880Z,101340.53
2023-11-18T01:28:16.591Z,101339.72
2023-11-18T01:33:19.625Z,101329.91
2023-11-18T01:38:21.967Z,101317.19
2023-11-18T01:43:23.814Z,101305.38
2023-11-18T01:48:27.947Z,101304.88
2023-11-18T01:53:30.247Z,101309.63
2023-11-18T01:58:32.685Z,101310.31
2023-11-18T02:03:34.514Z,101311.34
2023-11-18T02:08:36.373Z,101317.59
2023-11-18T02:13:41.961Z,101321.19
2023-11-18T02:18:44.430Z,101321.16
2023-11-18T02:23:49.204Z,101329.47
2023-11-18T02:28:51.001Z,101336.25
2023-11-18T02:34:01.276Z,101341.34
2023-11-18T02:39:08.464Z,101337.25
2023-11-18T02:44:11.414Z,101324.31
2023-11-18T02:49:13.776Z,101334.00
2023-11-18T02:54:17.513Z,101316.03
2023-11-18T02:59:19.431Z,101316.56
2023-11-18T03:04:21.036Z,101304.88
2023-11-18T03:09:22.646Z,101301.28
2023-11-18T03:14:24.421Z,101295.38
2023-11-18T03:19:26.085Z,101293.00
2023-11-18T03:24:27.683Z,101304.88
2023-11-18T03:29:30.405Z,101307.25
2023-11-18T03:34:32.152Z,101315.03
2023-11-18T03:39:33.831Z,101319.78
2023-11-18T03:44:35.440Z,101301.13
2023-11-18T03:49:37.114Z,101309.44
2023-11-18T03:54:38.793Z,101296.53
2023-11-18T03:59:42.069Z,101301.78
2023-11-18T04:04:43.711Z,101305.66
2023-11-18T04:09:45.353Z,101303.91
2023-11-18T04:14:47.009Z,101305.59
2023-11-18T04:19:48.592Z,101307.44
2023-11-18T04:24:51.180Z,101314.84
2023-11-18T04:29:52.763Z,101305.34
2023-11-18T04:34:54.354Z,101309.22
2023-11-18T04:39:56.447Z,101301.16
2023-11-18T04:44:58.898Z,101300.09
2023-11-18T04:50:01.144Z,101303.44
2023-11-18T04:55:03.196Z,101298.44
2023-11-18T05:00:12.407Z,101290.84
2023-11-18T05:05:15.869Z,101293.28
2023-11-18T05:10:17.793Z,101291.97
2023-11-18T05:15:19.498Z,101294.19
2023-11-18T05:20:21.939Z,101299.97
2023-11-18T05:25:24.031Z,101298.75
2023-11-18T05:30:26.893Z,101307.38
2023-11-18T05:35:29.914Z,101301.41
2023-11-18T05:40:31.536Z,101300.59
2023-11-18T05:45:45.330Z,101300.75
2023-11-18T05:50:49.244Z,101305.50
2023-11-18T05:55:51.911Z,101292.00
2023-11-18T06:00:53.586Z,101289.81
2023-11-18T06:05:55.423Z,101295.94
2023-11-18T06:10:57.905Z,101284.41
2023-11-18T06:16:03.136Z,101286.53
2023-11-18T06:21:04.875Z,101291.03
2023-11-18T06:26:06.794Z,101292.03
2023-11-18T06:31:10.036Z,101286.38
2023-11-18T06:36:14.632Z,101287.03
2023-11-18T06:41:17.865Z,101286.72
2023-11-18T06:46:25.738Z,101285.78
2023-11-18T06:51:28.934Z,101275.97
2023-11-18T06:56:31.384Z,101279.75
2023-11-18T07:01:33.100Z,101284.19
2023-11-18T07:06:39.121Z,101286.28
2023-11-18T07:11:42.143Z,101298.84
2023-11-18T07:16:45.111Z,101304.22
2023-11-18T07:21:48.015Z,101304.75
2023-11-18T07:26:52.195Z,101311.91
2023-11-18T07:31:55.950Z,101311.59
2023-11-18T07:36:57.644Z,101310.94
2023-11-18T07:42:00.321Z,101293.97
2023-11-18T07:47:05.566Z,101297.06
2023-11-18T07:52:07.185Z,101304.22
2023-11-18T07:57:11.733Z,101311.16
2023-11-18T08:02:15.846Z,101315.44
2023-11-18T08:07:17.447Z,101316.78
2023-11-18T08:12:18.995Z,101334.06
2023-11-18T08:17:21.568Z,101337.97
2023-11-18T08:22:24.263Z,101322.53
2023-11-18T08:27:26.014Z,101308.41
2023-11-18T08:32:27.658Z,101321.63
2023-11-18T08:37:29.333Z,101318.16
2023-11-18T08:42:32.860Z,101315.88
2023-11-18T08:47:34.424Z,101308.16
2023-11-18T08:52:37.972Z,101299.09
2023-11-18T08:57:53.793Z,101293.94
2023-11-18T09:02:55.569Z,101295.94
2023-11-18T09:07:58.983Z,101296.09
2023-11-18T09:13:02.361Z,101299.28
2023-11-18T09:18:04.187Z,101290.03
2023-11-18T09:23:06.244Z,101287.63
2023-11-18T09:28:11.401Z,101297.72
2023-11-18T09:33:15.321Z,101289.34
2023-11-18T09:38:17.709Z,101296.53
2023-11-18T09:43:20.397Z,101292.31
2023-11-18T09:48:26.340Z,101307.28
2023-11-18T09:53:33.105Z,101326.84
2023-11-18T09:58:45.990Z,101311.66
2023-11-18T10:03:48.008Z,101306.78
2023-11-18T10:08:54.517Z,101306.28
2023-11-18T10:13:56.167Z,101283.75
2023-11-18T10:19:02.252Z,101278.41
2023-11-18T10:24:04.253Z,101280.56
2023-11-18T10:29:09.149Z,101276.72
2023-11-18T10:34:12.826Z,101267.06
2023-11-18T10:39:17.365Z,101261.19
2023-11-18T10:44:19.355Z,101247.78
2023-11-18T10:49:24.229Z,101238.44
2023-11-18T10:54:27.607Z,101226.06
2023-11-18T10:59:29.480Z,101230.09
2023-11-18T11:04:44.245Z,101220.72
2023-11-18T11:09:47.202Z,101215.88
2023-11-18T11:15:01.067Z,101205.59
2023-11-18T11:20:34.132Z,101192.00
2023-11-18T11:25:47.538Z,101168.06
2023-11-18T11:31:05.240Z,101157.38
2023-11-18T11:36:12.796Z,101136.94
2023-11-18T11:41:22.082Z,101111.47
2023-11-18T11:46:25.969Z,101105.38
2023-11-18T11:51:41.010Z,101098.41
2023-11-18T11:57:02.539Z,101092.31
2023-11-18T12:02:10.365Z,101083.06
2023-11-18T12:07:20.634Z,101085.19
2023-11-18T12:12:27.582Z,101084.06
2023-11-18T12:17:33.790Z,101061.53
2023-11-18T12:23:16.060Z,101077.94
2023-11-18T12:28:22.505Z,101067.19
2023-11-18T12:33:47.595Z,101060.00
2023-11-18T12:39:14.921Z,101061.03
2023-11-18T12:44:22.736Z,101054.34
2023-11-18T12:49:25.999Z,101038.38
2023-11-18T12:54:28.584Z,101023.28
2023-11-18T12:59:31.675Z,101020.72
2023-11-18T13:04:35.214Z,101004.50
2023-11-18T13:09:37.358Z,100977.75
2023-11-18T13:14:40.492Z,100966.56
2023-11-18T13:19:42.798Z,100959.16
2023-11-18T13:24:47.134Z,100931.56
2023-11-18T13:29:54.504Z,100919.94
2023-11-18T13:34:56.497Z,100926.47
2023-11-18T13:40:01.087Z,100905.19
2023-11-18T13:45:24.042Z,100905.44
2023-11-18T13:50:38.827Z,100903.41
2023-11-18T13:55:41.286Z,100907.03
2023-11-18T14:00:43.401Z,100898.19
2023-11-18T14:05:48.464Z,100888.94
2023-11-18T14:11:02.119Z,100881.38
2023-11-18T14:16:10.709Z,100870.88
2023-11-18T14:21:15.267Z,100879.50
2023-11-18T14:26:16.928Z,100876.09
2023-11-18T14:31:19.268Z,100868.13
2023-11-18T14:36:20.976Z,100867.69
2023-11-18T14:41:29.600Z,100886.84
2023-11-18T14:46:32.556Z,100881.81
2023-11-18T14:51:34.800Z,100884.94
2023-11-18T14:56:36.524Z,100868.72
2023-11-18T15:01:38.474Z,100868.91
2023-11-18T15:06:40.852Z,100871.00
2023-11-18T15:11:42.447Z,100867.19
2023-11-18T15:16:44.610Z,100854.31
2023-11-18T15:21:47.031Z,100847.97
2023-11-18T15:26:51.005Z,100832.34
2023-11-18T15:31:56.077Z,100824.97
2023-11-18T15:37:01.861Z,100827.28
2023-11-18T15:42:06.815Z,100813.59
2023-11-18T15:47:10.893Z,100794.69
2023-11-18T15:52:13.512Z,100798.63
2023-11-18T15:57:15.103Z,100809.06
2023-11-18T16:02:17.474Z,100813.25
2023-11-18T16:07:19.256Z,100806.09
2023-11-18T16:12:20.817Z,100803.34
2023-11-18T16:17:22.595Z,100795.88
2023-11-18T16:22:25.289Z,100782.22
2023-11-18T16:27:26.849Z,100774.69
2023-11-18T16:32:28.540Z,100756.41
2023-11-18T16:37:30.251Z,100751.59
2023-11-18T16:42:31.811Z,100732.66
2023-11-18T16:47:37.321Z,100728.47
2023-11-18T16:52:40.283Z,100712.91
2023-11-18T16:57:41.982Z,100703.91
2023-11-18T17:02:45.255Z,100691.34
2023-11-18T17:07:47.079Z,100670.97
2023-11-18T17:12:52.385Z,100640.09
2023-11-18T17:18:01.971Z,100646.59
2023-11-18T17:23:04.747Z,100672.81
2023-11-18T17:28:07.220Z,100660.13
2023-11-18T17:33:08.851Z,100634.31
2023-11-18T17:38:10.593Z,100661.63
2023-11-18T17:43:12.390Z,100643.13
2023-11-18T17:48:14.114Z,100631.41
2023-11-18T17:53:15.797Z,100641.28
2023-11-18T17:58:17.617Z,100649.00
2023-11-18T18:03:19.636Z,100630.50
2023-11-18T18:08:21.334Z,100629.28
2023-11-18T18:13:22.909Z,100614.41
2023-11-18T18:18:24.508Z,100615.44
2023-11-18T18:23:26.085Z,100590.03
2023-11-18T18:28:27.698Z,100598.66
2023-11-18T18:33:29.450Z,100577.66
2023-11-18T18:38:31.143Z,100552.53
2023-11-18T18:43:32.805Z,100539.50
2023-11-18T18:48:34.405Z,100514.09
2023-11-18T18:53:36.139Z,100494.41
2023-11-18T18:58:37.880Z,100507.41
2023-11-18T19:03:39.670Z,100513.06
2023-11-18T19:08:43.254Z,100484.09
2023-11-18T19:13:44.890Z,100487.88
2023-11-18T19:18:46.976Z,100502.38
2023-11-18T19:23:48.618Z,100497.13
2023-11-18T19:28:50.489Z,100482.84
2023-11-18T19:33:52.071Z,100463.94
2023-11-18T19:38:54.020Z,100430.31
2023-11-18T19:43:56.869Z,100458.25
2023-11-18T19:48:58.684Z,100441.06
2023-11-18T19:54:00.263Z,100440.84
2023-11-18T19:59:01.997Z,100416.09
2023-11-18T20:04:03.781Z,100399.50
2023-11-18T20:09:07.552Z,100374.28
2023-11-18T20:14:09.138Z,100389.13
2023-11-18T20:19:10.839Z,100383.63
2023-11-18T20:24:12.417Z,100384.81
2023-11-18T20:29:16.629Z,100363.94
2023-11-18T20:34:19.222Z,100357.78
2023-11-18T20:39:21.036Z,100354.78
2023-11-18T20:44:22.629Z,100364.41
2023-11-18T20:49:26.057Z,100367.91
2023-11-18T20:54:27.659Z,100372.72
2023-11-18T20:59:29.281Z,100376.44
2023-11-18T21:04:31.609Z,100378.75
2023-11-18T21:09:33.314Z,100376.44
2023-11-18T21:14:34.914Z,100388.69
2023-11-18T21:19:36.500Z,100400.09
2023-11-18T21:24:38.092Z,100391.41
2023-11-18T21:29:39.688Z,100400.81
2023-11-18T21:34:46.027Z,100403.56
2023-11-18T21:39:47.605Z,100395.19
2023-11-18T21:44:49.208Z,100378.19
2023-11-18T21:49:52.513Z,100376.13
2023-11-18T21:54:54.722Z,100356.81
2023-11-18T21:59:56.391Z,100351.78
2023-11-18T22:04:59.299Z,100345.28
2023-11-18T22:10:01.158Z,100356.19
2023-11-18T22:15:05.428Z,100351.97
2023-11-18T22:20:13.918Z,100343.78
2023-11-18T22:25:16.201Z,100334.94
2023-11-18T22:30:18.367Z,100324.84
2023-11-18T22:35:20.882Z,100339.13
2023-11-18T22:40:23.157Z,100348.13
2023-11-18T22:45:24.736Z,100355.66
2023-11-18T22:50:26.363Z,100343.28
2023-11-18T22:55:28.409Z,100330.03
2023-11-18T23:00:39.197Z,100307.97
2023-11-18T23:05:41.437Z,100303.13
2023-11-18T23:10:47.751Z,100282.91
2023-11-18T23:15:49.594Z,100277.44
2023-11-18T23:20:51.419Z,100291.53
2023-11-18T23:25:53.162Z,100309.97
2023-11-18T23:30:58.342Z,100299.03
2023-11-18T23:36:00.123Z,100308.84
2023-11-18T23:41:01.805Z,100292.63
2023-11-18T23:46:06.715Z,100295.97
2023-11-18T23:51:11.152Z,100302.91
2023-11-18T23:56:12.760Z,100302.00
